Friday, February 23, 2018, 7:10 AM EST
Back to Local

KIWI, Wiscasset Municipal Airport

Location: Wiscasset, ME, United States Lat: 43.967
Local Time: 7:10 AM EST (12:10 GMT) Lon: -69.717
Time Zone: US/Eastern Elev: 68 ft

Show me the last for .
Show Decoded

2018-02-23 06:53 METAR KIWI 231153Z AUTO 00000KT 10SM CLR M05/M09 A3074 RMK AO2 SLP411 T10501094
                 11044 21072 58000 =
2018-02-23 05:53 METAR KIWI 231053Z AUTO VRB03KT 10SM CLR M07/M09 A3075 RMK AO2 SLP414 T10671089
                 =
2018-02-23 04:53 METAR KIWI 230953Z AUTO 00000KT 10SM CLR M07/M09 A3075 RMK AO2 SLP415 T10671089
                 =
2018-02-23 03:53 METAR KIWI 230853Z AUTO 00000KT 10SM CLR M06/M08 A3074 RMK AO2 SLP412 T10611083
                 53001 =
2018-02-23 02:53 METAR KIWI 230753Z AUTO 00000KT 10SM CLR M06/M09 A3073 RMK AO2 SLP405 T10561089
                 =
2018-02-23 01:53 METAR KIWI 230653Z AUTO 00000KT 10SM CLR M04/M08 A3073 RMK AO2 SLP407 T10441083
                 =
2018-02-23 00:53 METAR KIWI 230553Z AUTO 00000KT 10SM CLR M04/M07 A3074 RMK AO2 SLP411 T10441072
                 10011 21044 53015 =
2018-02-22 23:53 METAR KIWI 230453Z AUTO 00000KT 10SM BKN090 M04/M07 A3071 RMK AO2 SLP399
                 T10391067 400671039 =
2018-02-22 22:53 METAR KIWI 230353Z AUTO 00000KT 10SM BKN085 M03/M06 A3071 RMK AO2 SLP400
                 T10331061 =
2018-02-22 21:53 METAR KIWI 230253Z AUTO 00000KT 10SM CLR M04/M07 A3070 RMK AO2 SLP396 T10391072
                 53007 =
2018-02-22 20:53 METAR KIWI 230153Z AUTO 00000KT 10SM CLR M03/M07 A3068 RMK AO2 SLP391 T10281072
                 =
2018-02-22 19:53 METAR KIWI 230053Z AUTO 00000KT 10SM CLR M02/M07 A3067 RMK AO2 SLP387 T10171072
                 =
2018-02-22 18:53 METAR KIWI 222353Z AUTO 00000KT 10SM FEW110 01/M09 A3068 RMK AO2 SLP389
                 T00111094 10033 20006 51011 =
2018-02-22 17:53 METAR KIWI 222253Z AUTO 00000KT 10SM BKN110 01/M09 A3066 RMK AO2 SLP384
                 T00111094 =
2018-02-22 16:53 METAR KIWI 222153Z AUTO 00000KT 10SM OVC100 02/M13 A3066 RMK AO2 SLP383
                 T00221128 =
2018-02-22 15:53 METAR KIWI 222053Z AUTO 00000KT 10SM OVC100 03/M12 A3064 RMK AO2 SLP377
                 T00281122 53002 =
2018-02-22 14:53 METAR KIWI 221953Z AUTO 32003KT 10SM FEW075 OVC100 03/M12 A3063 RMK AO2 SLP373
                 T00281117 =
2018-02-22 13:53 METAR KIWI 221853Z AUTO 00000KT 10SM OVC070 03/M12 A3063 RMK AO2 SLP373
                 T00281117 =
2018-02-22 12:53 METAR KIWI 221753Z AUTO 00000KT 10SM BKN080 OVC090 03/M12 A3064 RMK AO2 PRESFR
                 SLP375 T00281117 10033 20011 58016 =
2018-02-22 11:53 METAR KIWI 221653Z AUTO VRB05KT 10SM OVC095 03/M13 A3068 RMK AO2 SLP389
                 T00281128 =
2018-02-22 10:53 METAR KIWI 221553Z AUTO VRB04KT 10SM SCT110 03/M14 A3066 RMK AO2 SLP384
                 T00281139 =
2018-02-22 09:53 METAR KIWI 221453Z AUTO 00000KT 10SM FEW120 03/M12 A3069 RMK AO2 SLP391
                 T00331122 51017 =
2018-02-22 08:53 METAR KIWI 221353Z AUTO VRB04KT 10SM BKN110 02/M12 A3066 RMK AO2 SLP382
                 T00171122 =
2018-02-22 07:53 METAR KIWI 221253Z AUTO 00000KT 10SM OVC110 02/M11 A3066 RMK AO2 SLP383
                 T00171111 =

Support USWX by starting your Amazon purchase here.